Terminal Aerodrome Forecast
Issued by NWS Wakefield, VA

Home | Current Version | Previous Version | Text Only | Print | Product List | Glossary On
Versions: 1 2 3 4 5 6 7 8 9 10 11 12 13 14 15 16
000
FTUS41 KAKQ 312340
TAFECG
TAF
KECG 312340Z 0100/0124 14007KT P6SM OVC035
      TEMPO 0100/0102 2SM -RA BR BKN005 OVC025
     FM010200 17004KT 4SM BR OVC015
     FM010500 VRB03KT 2SM BR OVC005
     FM011300 VRB03KT 4SM BR OVC015
     FM011600 02005KT P6SM SCT025 OVC050=

USA.gov is the U.S. government's official web portal to all federal, state and local government web resources and services.